sensor_id;sensor_type;location;lat;lon;timestamp;pressure;altitude;pressure_sealevel;temperature;humidity
68758;BME280;55747;51.998;4.466;2023-01-30T16:09:32;56626.72;;;-144.48;75.21
68758;BME280;55747;51.998;4.466;2023-01-30T16:11:58;56591.56;;;-144.48;76.02
68758;BME280;55747;51.998;4.466;2023-01-30T16:14:23;56618.44;;;-144.48;75.66
68758;BME280;55747;51.998;4.466;2023-01-30T16:16:55;56641.19;;;-144.48;75.64
68758;BME280;55747;51.998;4.466;2023-01-30T16:19:33;56637.03;;;-144.48;76.73
68758;BME280;55747;51.998;4.466;2023-01-30T16:22:09;56645.31;;;-144.48;75.70
68758;BME280;55747;51.998;4.466;2023-01-30T16:24:43;56647.38;;;-144.48;75.63
68758;BME280;55747;51.998;4.466;2023-01-30T16:27:30;56630.84;;;-144.48;75.48
68758;BME280;55747;51.998;4.466;2023-01-30T16:29:59;56632.91;;;-144.48;75.43
68758;BME280;55747;51.998;4.466;2023-01-30T16:32:29;56608.09;;;-144.48;74.50
68758;BME280;55747;51.998;4.466;2023-01-30T16:35:15;56647.38;;;-144.48;74.90
68758;BME280;55747;51.998;4.466;2023-01-30T16:37:42;56645.31;;;-144.48;74.76
68758;BME280;55747;51.998;4.466;2023-01-30T16:40:15;56626.72;;;-144.48;75.01
68758;BME280;55747;51.998;4.466;2023-01-30T16:50:43;56624.63;;;-144.48;75.44
68758;BME280;55747;51.998;4.466;2023-01-30T16:53:21;56645.31;;;-144.48;76.00
68758;BME280;55747;51.998;4.466;2023-01-30T16:58:21;56628.78;;;-144.48;75.16
68758;BME280;55747;51.998;4.466;2023-01-30T17:00:49;56639.13;;;-144.48;75.18
68758;BME280;55747;51.998;4.466;2023-01-30T17:03:29;56674.25;;;-144.48;74.61
68758;BME280;55747;51.998;4.466;2023-01-30T17:06:00;56630.84;;;-144.48;74.78
68758;BME280;55747;51.998;4.466;2023-01-30T17:11:05;56645.31;;;-144.48;75.39
68758;BME280;55747;51.998;4.466;2023-01-30T17:18:55;56632.91;;;-144.48;76.73
68758;BME280;55747;51.998;4.466;2023-01-30T17:21:24;56641.19;;;-144.48;77.18
68758;BME280;55747;51.998;4.466;2023-01-30T17:23:55;56637.03;;;-144.48;76.66
68758;BME280;55747;51.998;4.466;2023-01-30T17:26:22;56641.19;;;-144.48;76.58
68758;BME280;55747;51.998;4.466;2023-01-30T17:28:50;56666.00;;;-144.48;76.56
68758;BME280;55747;51.998;4.466;2023-01-30T17:31:18;56626.72;;;-144.48;76.05
68758;BME280;55747;51.998;4.466;2023-01-30T17:33:45;56643.25;;;-144.48;75.78
68758;BME280;55747;51.998;4.466;2023-01-30T17:36:17;56637.03;;;-144.48;76.16
68758;BME280;55747;51.998;4.466;2023-01-30T17:38:44;56630.84;;;-144.48;76.25
68758;BME280;55747;51.998;4.466;2023-01-30T17:41:30;56643.25;;;-144.48;76.61
68758;BME280;55747;51.998;4.466;2023-01-30T17:43:57;56641.19;;;-144.48;76.76
68758;BME280;55747;51.998;4.466;2023-01-30T17:46:34;56639.13;;;-144.48;76.75
68758;BME280;55747;51.998;4.466;2023-01-30T17:49:00;56672.19;;;-144.48;77.17
68758;BME280;55747;51.998;4.466;2023-01-30T17:51:26;56608.09;;;-144.48;77.20
68758;BME280;55747;51.998;4.466;2023-01-30T17:53:51;56624.63;;;-144.48;77.47
68758;BME280;55747;51.998;4.466;2023-01-30T17:56:21;56606.03;;;-144.48;77.35
68758;BME280;55747;51.998;4.466;2023-01-30T17:58:47;56637.03;;;-144.48;77.85
68758;BME280;55747;51.998;4.466;2023-01-30T18:01:15;56655.66;;;-144.48;77.56
68758;BME280;55747;51.998;4.466;2023-01-30T18:03:43;56657.72;;;-144.48;77.88
68758;BME280;55747;51.998;4.466;2023-01-30T18:06:11;56641.19;;;-144.48;77.67
68758;BME280;55747;51.998;4.466;2023-01-30T18:08:36;56612.22;;;-144.48;77.95
68758;BME280;55747;51.998;4.466;2023-01-30T18:11:02;56639.13;;;-144.48;78.26
68758;BME280;55747;51.998;4.466;2023-01-30T18:13:27;56624.63;;;-144.48;79.32
68758;BME280;55747;51.998;4.466;2023-01-30T18:15:54;56620.50;;;-144.48;79.18
68758;BME280;55747;51.998;4.466;2023-01-30T18:18:21;56626.72;;;-144.48;79.33
68758;BME280;55747;51.998;4.466;2023-01-30T18:20:47;56608.09;;;-144.48;78.82
68758;BME280;55747;51.998;4.466;2023-01-30T18:23:12;56643.25;;;-144.48;78.54
68758;BME280;55747;51.998;4.466;2023-01-30T18:25:37;56653.59;;;-144.48;78.25
68758;BME280;55747;51.998;4.466;2023-01-30T18:28:05;56614.31;;;-144.48;79.21
68758;BME280;55747;51.998;4.466;2023-01-30T18:30:31;56649.44;;;-144.48;79.70
68758;BME280;55747;51.998;4.466;2023-01-30T18:32:56;56632.91;;;-144.48;80.05
68758;BME280;55747;51.998;4.466;2023-01-30T18:35:22;56601.91;;;-144.48;80.29
68758;BME280;55747;51.998;4.466;2023-01-30T18:37:47;56589.50;;;-144.48;79.72
68758;BME280;55747;51.998;4.466;2023-01-30T18:40:13;56610.16;;;-144.48;79.73
68758;BME280;55747;51.998;4.466;2023-01-30T18:42:39;56628.78;;;-144.48;79.40
68758;BME280;55747;51.998;4.466;2023-01-30T18:45:05;56657.72;;;-144.48;79.51
68758;BME280;55747;51.998;4.466;2023-01-30T18:47:30;56616.38;;;-144.48;79.42
68758;BME280;55747;51.998;4.466;2023-01-30T18:49:56;56616.38;;;-144.48;79.40
68758;BME280;55747;51.998;4.466;2023-01-30T18:52:22;56610.16;;;-144.48;79.05
68758;BME280;55747;51.998;4.466;2023-01-30T18:54:47;56680.47;;;-144.48;79.00
68758;BME280;55747;51.998;4.466;2023-01-30T18:57:14;56639.13;;;-144.48;79.34
68758;BME280;55747;51.998;4.466;2023-01-30T18:59:39;56641.19;;;-144.48;78.66
68758;BME280;55747;51.998;4.466;2023-01-30T19:02:06;56651.50;;;-144.48;78.16
68758;BME280;55747;51.998;4.466;2023-01-30T19:04:32;56653.59;;;-144.48;78.04
68758;BME280;55747;51.998;4.466;2023-01-30T19:06:57;56672.19;;;-144.48;77.96
68758;BME280;55747;51.998;4.466;2023-01-30T19:09:22;56637.03;;;-144.48;78.40
68758;BME280;55747;51.998;4.466;2023-01-30T19:11:48;56641.19;;;-144.48;78.76
68758;BME280;55747;51.998;4.466;2023-01-30T19:14:32;56634.97;;;-144.48;77.83
68758;BME280;55747;51.998;4.466;2023-01-30T19:16:57;56628.78;;;-144.48;77.26
68758;BME280;55747;51.998;4.466;2023-01-30T19:19:22;56649.44;;;-144.48;77.61
68758;BME280;55747;51.998;4.466;2023-01-30T19:21:48;56659.78;;;-144.48;77.58
68758;BME280;55747;51.998;4.466;2023-01-30T19:24:16;56637.03;;;-144.48;80.16
68758;BME280;55747;51.998;4.466;2023-01-30T19:26:42;56622.56;;;-144.48;80.79
68758;BME280;55747;51.998;4.466;2023-01-30T19:29:07;56626.72;;;-144.48;80.41
68758;BME280;55747;51.998;4.466;2023-01-30T19:31:34;56649.44;;;-144.48;80.43
68758;BME280;55747;51.998;4.466;2023-01-30T19:34:00;56634.97;;;-144.48;80.29
68758;BME280;55747;51.998;4.466;2023-01-30T19:36:28;56622.56;;;-144.48;81.80
68758;BME280;55747;51.998;4.466;2023-01-30T19:38:54;56645.31;;;-144.48;81.79
68758;BME280;55747;51.998;4.466;2023-01-30T19:41:28;56668.06;;;-144.48;82.08
68758;BME280;55747;51.998;4.466;2023-01-30T19:43:55;56659.78;;;-144.48;81.58
68758;BME280;55747;51.998;4.466;2023-01-30T19:46:21;56643.25;;;-144.48;81.09
68758;BME280;55747;51.998;4.466;2023-01-30T19:48:47;56626.72;;;-144.48;81.41
68758;BME280;55747;51.998;4.466;2023-01-30T19:51:14;56630.84;;;-144.48;82.31
68758;BME280;55747;51.998;4.466;2023-01-30T19:53:42;56666.00;;;-144.48;83.49
68758;BME280;55747;51.998;4.466;2023-01-30T19:56:09;56630.84;;;-144.48;83.41
68758;BME280;55747;51.998;4.466;2023-01-30T19:58:36;56672.19;;;-144.48;83.55
68758;BME280;55747;51.998;4.466;2023-01-30T20:03:30;56618.44;;;-144.48;83.82
68758;BME280;55747;51.998;4.466;2023-01-30T20:06:15;56643.25;;;-144.48;83.24
68758;BME280;55747;51.998;4.466;2023-01-30T20:08:42;56637.03;;;-144.48;82.24
68758;BME280;55747;51.998;4.466;2023-01-30T20:11:11;56666.00;;;-144.48;82.57
68758;BME280;55747;51.998;4.466;2023-01-30T20:13:38;56626.72;;;-144.48;82.46
68758;BME280;55747;51.998;4.466;2023-01-30T20:16:09;56634.97;;;-144.48;82.57
68758;BME280;55747;51.998;4.466;2023-01-30T20:18:35;56655.66;;;-144.48;82.59
68758;BME280;55747;51.998;4.466;2023-01-30T20:23:31;56639.13;;;-144.48;81.03
68758;BME280;55747;51.998;4.466;2023-01-30T20:25:57;56657.72;;;-144.48;80.49
68758;BME280;55747;51.998;4.466;2023-01-30T20:28:23;56676.31;;;-144.48;80.39
68758;BME280;55747;51.998;4.466;2023-01-30T20:30:48;56620.50;;;-144.48;80.80
68758;BME280;55747;51.998;4.466;2023-01-30T20:33:13;56634.97;;;-144.48;81.06
68758;BME280;55747;51.998;4.466;2023-01-30T20:35:39;56703.19;;;-144.48;81.61
68758;BME280;55747;51.998;4.466;2023-01-30T20:38:04;56612.22;;;-144.48;82.05
68758;BME280;55747;51.998;4.466;2023-01-30T20:40:29;56639.13;;;-144.48;82.10
68758;BME280;55747;51.998;4.466;2023-01-30T20:42:56;56684.59;;;-144.48;80.73
68758;BME280;55747;51.998;4.466;2023-01-30T20:45:21;56634.97;;;-144.48;80.48
68758;BME280;55747;51.998;4.466;2023-01-30T20:47:47;56601.91;;;-144.48;80.59
68758;BME280;55747;51.998;4.466;2023-01-30T20:50:12;56637.03;;;-144.48;80.74
68758;BME280;55747;51.998;4.466;2023-01-30T20:52:38;56643.25;;;-144.48;82.08
68758;BME280;55747;51.998;4.466;2023-01-30T20:55:04;56630.84;;;-144.48;81.59
68758;BME280;55747;51.998;4.466;2023-01-30T20:57:29;56622.56;;;-144.48;80.71
68758;BME280;55747;51.998;4.466;2023-01-30T20:59:55;56651.50;;;-144.48;80.68
68758;BME280;55747;51.998;4.466;2023-01-30T21:02:20;56628.78;;;-144.48;81.36
68758;BME280;55747;51.998;4.466;2023-01-30T21:04:46;56608.09;;;-144.48;81.24
68758;BME280;55747;51.998;4.466;2023-01-30T21:07:11;56632.91;;;-144.48;81.91
68758;BME280;55747;51.998;4.466;2023-01-30T21:09:36;56643.25;;;-144.48;82.35
68758;BME280;55747;51.998;4.466;2023-01-30T21:12:02;56645.31;;;-144.48;82.46
68758;BME280;55747;51.998;4.466;2023-01-30T21:14:27;56643.25;;;-144.48;82.03
68758;BME280;55747;51.998;4.466;2023-01-30T21:16:53;56639.13;;;-144.48;81.71
68758;BME280;55747;51.998;4.466;2023-01-30T21:19:18;56643.25;;;-144.48;82.41
68758;BME280;55747;51.998;4.466;2023-01-30T21:21:51;56626.72;;;-144.48;82.44
68758;BME280;55747;51.998;4.466;2023-01-30T21:24:24;56608.09;;;-144.48;82.65
68758;BME280;55747;51.998;4.466;2023-01-30T21:26:50;56651.50;;;-144.48;83.04
68758;BME280;55747;51.998;4.466;2023-01-30T21:29:19;56637.03;;;-144.48;83.47
68758;BME280;55747;51.998;4.466;2023-01-30T21:31:45;56624.63;;;-144.48;83.37
68758;BME280;55747;51.998;4.466;2023-01-30T21:34:10;56684.59;;;-144.48;83.39
68758;BME280;55747;51.998;4.466;2023-01-30T21:36:36;56653.59;;;-144.48;83.06
68758;BME280;55747;51.998;4.466;2023-01-30T21:39:02;56659.78;;;-144.48;82.46
68758;BME280;55747;51.998;4.466;2023-01-30T21:41:45;56641.19;;;-144.48;82.41
68758;BME280;55747;51.998;4.466;2023-01-30T21:44:34;56653.59;;;-144.48;82.92
68758;BME280;55747;51.998;4.466;2023-01-30T21:47:05;56643.25;;;-144.48;83.27
68758;BME280;55747;51.998;4.466;2023-01-30T21:49:31;56643.25;;;-144.48;83.72
68758;BME280;55747;51.998;4.466;2023-01-30T21:51:57;56637.03;;;-144.48;83.22
68758;BME280;55747;51.998;4.466;2023-01-30T21:54:23;56608.09;;;-144.48;82.89
68758;BME280;55747;51.998;4.466;2023-01-30T21:56:48;56614.31;;;-144.48;83.43
68758;BME280;55747;51.998;4.466;2023-01-30T21:59:14;56657.72;;;-144.48;84.00
68758;BME280;55747;51.998;4.466;2023-01-30T22:01:40;56626.72;;;-144.48;84.47
68758;BME280;55747;51.998;4.466;2023-01-30T22:04:10;56626.72;;;-144.48;84.64
68758;BME280;55747;51.998;4.466;2023-01-30T22:06:38;56653.59;;;-144.48;84.55
68758;BME280;55747;51.998;4.466;2023-01-30T22:09:04;56622.56;;;-144.48;84.09
68758;BME280;55747;51.998;4.466;2023-01-30T22:11:30;56645.31;;;-144.48;84.11
68758;BME280;55747;51.998;4.466;2023-01-30T22:13:56;56653.59;;;-144.48;83.95
68758;BME280;55747;51.998;4.466;2023-01-30T22:16:25;56655.66;;;-144.48;84.59
68758;BME280;55747;51.998;4.466;2023-01-30T22:18:52;56647.38;;;-144.48;85.05
68758;BME280;55747;51.998;4.466;2023-01-30T22:21:19;56678.41;;;-144.48;85.68
68758;BME280;55747;51.998;4.466;2023-01-30T22:23:47;56649.44;;;-144.48;85.67
68758;BME280;55747;51.998;4.466;2023-01-30T22:26:14;56653.59;;;-144.48;85.83
68758;BME280;55747;51.998;4.466;2023-01-30T22:28:40;56603.97;;;-144.48;86.06
68758;BME280;55747;51.998;4.466;2023-01-30T22:31:11;56647.38;;;-144.48;86.73
68758;BME280;55747;51.998;4.466;2023-01-30T22:33:37;56643.25;;;-144.48;87.17
68758;BME280;55747;51.998;4.466;2023-01-30T22:36:05;56663.91;;;-144.48;87.45
68758;BME280;55747;51.998;4.466;2023-01-30T22:38:32;56620.50;;;-144.48;88.07
68758;BME280;55747;51.998;4.466;2023-01-30T22:41:02;56674.25;;;-144.48;88.66
68758;BME280;55747;51.998;4.466;2023-01-30T22:43:28;56653.59;;;-144.48;89.08
68758;BME280;55747;51.998;4.466;2023-01-30T22:46:02;56626.72;;;-144.48;89.44
68758;BME280;55747;51.998;4.466;2023-01-30T22:48:28;56649.44;;;-144.48;89.52
68758;BME280;55747;51.998;4.466;2023-01-30T22:53:25;56674.25;;;-144.48;90.07
68758;BME280;55747;51.998;4.466;2023-01-30T22:55:51;56663.91;;;-144.48;90.24
68758;BME280;55747;51.998;4.466;2023-01-30T22:58:16;56707.34;;;-144.48;90.47
68758;BME280;55747;51.998;4.466;2023-01-30T23:00:41;56647.38;;;-144.48;90.65
68758;BME280;55747;51.998;4.466;2023-01-30T23:03:07;56647.38;;;-144.48;90.78
68758;BME280;55747;51.998;4.466;2023-01-30T23:05:32;56639.13;;;-144.48;90.96
68758;BME280;55747;51.998;4.466;2023-01-30T23:07:57;56603.97;;;-144.48;91.06
68758;BME280;55747;51.998;4.466;2023-01-30T23:10:22;56639.13;;;-144.48;91.52
68758;BME280;55747;51.998;4.466;2023-01-30T23:12:50;56657.72;;;-144.48;91.56
68758;BME280;55747;51.998;4.466;2023-01-30T23:15:32;56657.72;;;-144.48;91.96
68758;BME280;55747;51.998;4.466;2023-01-30T23:18:04;56641.19;;;-144.48;92.42
68758;BME280;55747;51.998;4.466;2023-01-30T23:20:48;56670.13;;;-144.48;92.43
68758;BME280;55747;51.998;4.466;2023-01-30T23:23:14;56655.66;;;-144.48;92.67
68758;BME280;55747;51.998;4.466;2023-01-30T23:25:40;56661.84;;;-144.48;92.83
68758;BME280;55747;51.998;4.466;2023-01-30T23:28:06;56651.50;;;-144.48;92.99
68758;BME280;55747;51.998;4.466;2023-01-30T23:30:31;56649.44;;;-144.48;93.10
68758;BME280;55747;51.998;4.466;2023-01-30T23:32:56;56655.66;;;-144.48;93.44
68758;BME280;55747;51.998;4.466;2023-01-30T23:35:22;56647.38;;;-144.48;93.73
68758;BME280;55747;51.998;4.466;2023-01-30T23:37:47;56661.84;;;-144.48;93.70
68758;BME280;55747;51.998;4.466;2023-01-30T23:40:31;56684.59;;;-144.48;93.87
68758;BME280;55747;51.998;4.466;2023-01-30T23:42:56;56628.78;;;-144.48;93.81
68758;BME280;55747;51.998;4.466;2023-01-30T23:45:22;56620.50;;;-144.48;94.02
68758;BME280;55747;51.998;4.466;2023-01-30T23:47:47;56643.25;;;-144.48;94.04
68758;BME280;55747;51.998;4.466;2023-01-30T23:50:12;56670.13;;;-144.48;93.53
68758;BME280;55747;51.998;4.466;2023-01-30T23:52:38;56651.50;;;-144.48;93.13
68758;BME280;55747;51.998;4.466;2023-01-30T23:55:06;56655.66;;;-144.48;92.76
68758;BME280;55747;51.998;4.466;2023-01-30T23:57:32;56657.72;;;-144.48;92.30
68758;BME280;55747;51.998;4.466;2023-01-30T23:59:57;56657.72;;;-144.48;92.02
